createdAt,value
2022-09-16T06:40:12.658Z,1.50
2022-09-16T06:42:40.756Z,1.60
2022-09-16T06:45:09.439Z,1.23
2022-09-16T06:47:37.604Z,1.17
2022-09-16T06:50:06.450Z,0.83
2022-09-16T06:52:34.497Z,1.07
2022-09-16T06:55:02.465Z,1.07
2022-09-16T06:57:32.189Z,1.10
2022-09-16T07:00:00.172Z,1.03
2022-09-16T07:02:28.669Z,1.03
2022-09-16T07:04:56.740Z,1.07
2022-09-16T07:07:24.739Z,0.90
2022-09-16T07:09:53.746Z,1.00
2022-09-16T07:12:22.127Z,0.83
2022-09-16T07:14:51.714Z,1.17
2022-09-16T07:17:19.680Z,0.80
2022-09-16T07:19:49.187Z,1.00
2022-09-16T07:22:17.203Z,1.10
2022-09-16T07:24:46.054Z,0.87
2022-09-16T07:27:14.584Z,1.87
2022-09-16T07:29:42.805Z,1.03
2022-09-16T07:32:12.268Z,1.27
2022-09-16T07:34:40.339Z,1.30
2022-09-16T07:37:08.376Z,1.57
2022-09-16T07:39:36.614Z,0.77
2022-09-16T07:42:06.277Z,1.30
2022-09-16T07:44:34.393Z,1.03
2022-09-16T07:47:02.503Z,1.00
2022-09-16T07:49:32.033Z,0.80
2022-09-16T07:52:00.387Z,1.07
2022-09-16T07:54:28.481Z,1.10
2022-09-16T07:56:56.454Z,1.20
2022-09-16T07:59:24.557Z,0.80
2022-09-16T08:01:52.720Z,0.80
2022-09-16T08:04:21.832Z,1.23
2022-09-16T08:06:51.350Z,3.50
2022-09-16T08:09:39.693Z,2.10
2022-09-16T08:12:10.892Z,1.90
2022-09-16T08:14:39.353Z,1.00
2022-09-16T08:17:08.061Z,1.13
2022-09-16T08:19:36.070Z,0.90
2022-09-16T08:22:05.896Z,1.07
2022-09-16T08:24:33.907Z,0.87
2022-09-16T08:27:01.893Z,1.00
2022-09-16T08:29:29.949Z,0.77
2022-09-16T08:31:57.992Z,0.80
2022-09-16T08:34:26.047Z,1.10
2022-09-16T08:36:54.045Z,0.97
2022-09-16T08:39:23.426Z,0.60
2022-09-16T08:42:25.555Z,0.60
2022-09-16T08:45:01.998Z,0.70
2022-09-16T08:47:43.201Z,0.60
2022-09-16T08:50:16.121Z,0.63
2022-09-16T08:52:46.565Z,1.10
2022-09-16T08:55:19.772Z,1.30
2022-09-16T08:57:55.055Z,1.40
2022-09-16T09:00:23.180Z,1.00
2022-09-16T09:02:56.723Z,1.03
2022-09-16T09:05:31.495Z,1.10
2022-09-16T09:08:21.034Z,1.20
2022-09-16T09:10:53.611Z,1.20
2022-09-16T09:13:48.989Z,1.03
2022-09-16T09:16:27.174Z,0.60
2022-09-16T09:19:07.830Z,0.80
2022-09-16T09:21:44.052Z,0.70
2022-09-16T09:24:30.416Z,0.53
2022-09-16T09:27:04.592Z,0.80
2022-09-16T09:29:54.360Z,1.07
2022-09-16T09:32:27.750Z,0.80
2022-09-16T09:35:07.477Z,0.90
2022-09-16T09:37:53.621Z,0.90
2022-09-16T09:40:28.414Z,0.67
2022-09-16T09:43:08.880Z,1.03
2022-09-16T09:45:41.449Z,0.70
2022-09-16T09:48:16.500Z,1.07
2022-09-16T09:50:47.171Z,0.63
2022-09-16T09:53:22.121Z,1.27
2022-09-16T09:55:55.804Z,1.13
2022-09-16T09:58:35.032Z,1.10
2022-09-16T10:01:03.624Z,0.90
2022-09-16T10:03:32.157Z,1.00
2022-09-16T10:06:00.633Z,0.73
2022-09-16T10:08:31.748Z,0.80
2022-09-16T10:11:01.660Z,0.80
2022-09-16T10:13:32.128Z,0.80
2022-09-16T10:16:11.703Z,0.90
2022-09-16T10:18:40.644Z,0.90
2022-09-16T10:21:11.681Z,0.80
2022-09-16T10:23:40.195Z,0.93
2022-09-16T10:26:20.497Z,0.90
2022-09-16T10:29:01.553Z,0.83
2022-09-16T10:31:36.047Z,0.50
2022-09-16T10:34:06.069Z,1.30
2022-09-16T10:36:36.601Z,0.80
2022-09-16T10:39:05.924Z,0.80
2022-09-16T10:41:36.299Z,0.93
2022-09-16T10:44:17.461Z,0.60
2022-09-16T10:46:53.767Z,0.73
2022-09-16T10:49:26.485Z,0.70
2022-09-16T10:51:54.723Z,0.80
2022-09-16T10:54:28.011Z,0.80
2022-09-16T10:56:56.270Z,0.97
2022-09-16T10:59:25.756Z,1.10
2022-09-16T11:02:06.602Z,0.83
2022-09-16T11:04:50.446Z,1.00
2022-09-16T11:07:28.387Z,1.33
2022-09-16T11:10:11.142Z,0.80
2022-09-16T11:13:10.818Z,0.70
2022-09-16T11:15:53.360Z,0.87
2022-09-16T11:18:41.052Z,0.60
2022-09-16T11:21:22.031Z,1.00
2022-09-16T11:24:06.054Z,0.80
2022-09-16T11:26:41.559Z,0.90
2022-09-16T11:29:40.231Z,0.80
2022-09-16T11:32:20.900Z,0.60
2022-09-16T11:35:04.965Z,1.30
2022-09-16T11:37:41.313Z,0.70
2022-09-16T11:40:22.815Z,1.07
2022-09-16T11:43:00.062Z,1.40
2022-09-16T11:45:40.645Z,1.03
2022-09-16T11:48:39.006Z,1.27
2022-09-16T11:51:17.156Z,0.93
2022-09-16T11:53:58.541Z,0.70
2022-09-16T11:56:36.414Z,0.87
2022-09-16T11:59:14.241Z,1.00
2022-09-16T12:01:46.635Z,0.90
2022-09-16T12:04:23.912Z,1.23
2022-09-16T12:06:57.421Z,0.87
2022-09-16T12:09:41.066Z,1.30
2022-09-16T12:12:13.977Z,1.00
2022-09-16T12:14:46.721Z,0.80
2022-09-16T12:17:19.506Z,0.70
2022-09-16T12:19:53.541Z,0.60
2022-09-16T12:22:26.458Z,0.67
2022-09-16T12:25:01.738Z,0.80
2022-09-16T12:27:40.292Z,0.80
2022-09-16T12:30:15.942Z,0.50
2022-09-16T12:32:58.943Z,1.80
2022-09-16T12:35:34.182Z,0.70
2022-09-16T12:38:02.353Z,0.80
2022-09-16T12:40:35.753Z,0.90
2022-09-16T12:43:30.816Z,1.00
2022-09-16T12:46:35.946Z,1.00
2022-09-16T12:49:38.521Z,1.37
2022-09-16T12:52:22.876Z,0.87
2022-09-16T12:55:18.084Z,1.23
2022-09-16T12:58:00.406Z,0.90
2022-09-16T13:00:33.527Z,1.33
2022-09-16T13:03:08.620Z,1.10
2022-09-16T13:05:39.020Z,0.90
2022-09-16T13:08:20.944Z,1.10
2022-09-16T13:11:20.917Z,0.63
2022-09-16T13:13:50.384Z,1.00
2022-09-16T13:16:32.911Z,0.90
2022-09-16T13:19:26.925Z,0.77
2022-09-16T13:21:59.231Z,0.80
2022-09-16T13:24:37.383Z,1.07
2022-09-16T13:27:26.546Z,1.17
2022-09-16T13:30:15.105Z,0.60
2022-09-16T13:32:45.855Z,0.50
2022-09-16T13:35:35.911Z,0.40
2022-09-16T13:38:22.159Z,0.60
2022-09-16T13:41:01.972Z,0.90
2022-09-16T13:43:31.574Z,0.77
2022-09-16T13:46:28.187Z,1.20
2022-09-16T13:49:00.870Z,0.90
2022-09-16T13:51:30.827Z,1.17
2022-09-16T13:54:04.760Z,1.10
2022-09-16T13:56:47.944Z,0.90
2022-09-16T13:59:32.177Z,0.97
2022-09-16T14:02:10.272Z,0.87
2022-09-16T14:04:54.488Z,1.27
2022-09-16T14:07:33.704Z,1.90
2022-09-16T14:10:05.874Z,1.77
2022-09-16T14:12:46.081Z,1.70
2022-09-16T14:15:16.252Z,1.60
2022-09-16T14:17:51.381Z,1.23
2022-09-16T14:20:23.572Z,2.47
2022-09-16T14:23:03.104Z,1.17
2022-09-16T14:25:33.396Z,0.70
2022-09-16T14:28:22.868Z,0.90
2022-09-16T14:30:53.815Z,0.80
2022-09-16T14:33:28.675Z,0.70
2022-09-16T14:35:57.651Z,0.80
2022-09-16T14:38:45.565Z,0.80
2022-09-16T14:41:20.651Z,0.90
2022-09-16T14:43:50.970Z,0.80
2022-09-16T14:46:19.031Z,1.13
2022-09-16T14:48:47.426Z,0.90
2022-09-16T14:51:22.468Z,0.83
2022-09-16T14:54:13.902Z,0.80
2022-09-16T14:56:42.237Z,1.00
2022-09-16T14:59:15.618Z,0.97
2022-09-16T15:01:44.206Z,0.77
2022-09-16T15:04:19.336Z,0.90
2022-09-16T15:06:53.282Z,0.70
2022-09-16T15:09:27.263Z,0.80
2022-09-16T15:11:58.491Z,0.60
2022-09-16T15:14:28.714Z,1.40
2022-09-16T15:17:00.694Z,1.00
2022-09-16T15:19:32.449Z,1.20
2022-09-16T15:22:00.788Z,0.83
2022-09-16T15:24:32.780Z,0.67
2022-09-16T15:27:02.160Z,0.90
2022-09-16T15:29:34.250Z,0.83
2022-09-16T15:32:19.686Z,1.10
2022-09-16T15:34:49.951Z,1.03
2022-09-16T15:37:34.790Z,0.70
2022-09-16T15:40:37.086Z,0.97
2022-09-16T15:43:14.864Z,1.20
2022-09-16T15:45:46.564Z,1.57
2022-09-16T15:48:18.550Z,1.00
2022-09-16T15:50:51.006Z,1.47
2022-09-16T15:53:23.547Z,1.00
2022-09-16T15:56:01.731Z,1.40
2022-09-16T15:58:42.455Z,1.70
2022-09-16T16:01:16.667Z,1.93
2022-09-16T16:03:54.451Z,2.30
2022-09-16T16:06:44.482Z,2.23
2022-09-16T16:09:40.167Z,2.60
2022-09-16T16:12:10.833Z,2.20
2022-09-16T16:14:40.397Z,1.50
2022-09-16T16:17:14.607Z,1.70
2022-09-16T16:19:43.473Z,1.33
2022-09-16T16:22:12.351Z,1.53
2022-09-16T16:24:40.754Z,2.70
2022-09-16T16:27:10.281Z,2.30
2022-09-16T16:29:39.108Z,2.07
2022-09-16T16:32:11.364Z,2.03
2022-09-16T16:34:41.332Z,2.10
2022-09-16T16:37:19.177Z,1.00
2022-09-16T16:39:56.663Z,1.27
2022-09-16T16:42:25.093Z,1.00
2022-09-16T16:44:53.118Z,1.20
2022-09-16T16:47:22.517Z,0.77
2022-09-16T16:49:51.551Z,1.00
2022-09-16T16:52:19.980Z,0.80
2022-09-16T16:54:47.989Z,0.80
2022-09-16T16:57:16.389Z,0.90
2022-09-16T16:59:44.436Z,1.00
2022-09-16T17:02:15.002Z,1.47
2022-09-16T17:04:44.649Z,0.90
2022-09-16T17:07:28.410Z,1.20
2022-09-16T17:09:57.349Z,1.10
2022-09-16T17:12:25.781Z,2.07
2022-09-16T17:14:53.887Z,3.07
2022-09-16T17:17:22.086Z,1.73
2022-09-16T17:19:51.447Z,1.63
2022-09-16T17:22:19.485Z,1.20
2022-09-16T17:24:47.538Z,1.20
2022-09-16T17:27:19.754Z,2.70
2022-09-16T17:29:47.792Z,2.30
2022-09-16T17:32:16.163Z,2.10
2022-09-16T17:34:44.260Z,2.07
2022-09-16T17:37:14.556Z,1.93
2022-09-16T17:39:42.658Z,1.90
2022-09-16T17:42:10.666Z,2.00
2022-09-16T17:44:38.607Z,1.50
2022-09-16T17:47:07.026Z,1.40
2022-09-16T17:49:35.013Z,1.87
2022-09-16T17:52:03.362Z,1.33
2022-09-16T17:54:32.731Z,1.00
2022-09-16T17:57:00.746Z,1.17
2022-09-16T17:59:28.738Z,0.73
2022-09-16T18:01:56.651Z,1.27
2022-09-16T18:04:24.805Z,1.20
2022-09-16T18:06:52.832Z,2.17
2022-09-16T18:09:20.872Z,2.40
2022-09-16T18:11:50.354Z,3.07
2022-09-16T18:14:23.167Z,8.13
2022-09-16T18:16:51.966Z,4.40
2022-09-16T18:19:20.235Z,2.33
2022-09-16T18:21:48.310Z,1.40
2022-09-16T18:24:16.351Z,1.60
2022-09-16T18:26:44.584Z,1.77
2022-09-16T18:29:15.101Z,1.90
2022-09-16T18:31:45.388Z,1.77
2022-09-16T18:34:14.005Z,2.00
2022-09-16T18:36:42.413Z,2.00
2022-09-16T18:39:13.192Z,2.10
2022-09-16T18:41:43.356Z,2.40
2022-09-16T18:44:16.289Z,2.13
2022-09-16T18:46:44.732Z,1.97
2022-09-16T18:49:16.951Z,1.87
2022-09-16T18:51:50.848Z,3.83
2022-09-16T18:54:25.270Z,3.10
2022-09-16T18:56:55.890Z,7.20
2022-09-16T18:59:29.479Z,5.97
2022-09-16T19:02:01.342Z,5.37
2022-09-16T19:04:32.311Z,2.97
